Time;durP1;ratioP1;P1;durP2;ratioP2;P2;SDS_P1;SDS_P2;PMS_P1;PMS_P2;Temp;Humidity;BMP_temperature;BMP_pressure;BME280_temperature;BME280_humidity;BME280_pressure;Samples;Min_cycle;Max_cycle;Signal;HPM_P1;HPM_P2
2021/04/05 00:10:24;;;;;;;17.57;7.83;;;;;;;3.77;79.63;99448.50;10615964;82;98244;-74
2021/04/05 00:25:29;;;;;;;;;;;;;;;3.66;80.70;99428.06;10663773;81;98267;-80
2021/04/05 00:40:36;;;;;;;20.88;8.03;;;;;;;3.43;82.57;99398.63;10601027;81;84524;-79
2021/04/05 00:55:44;;;;;;;18.67;7.90;;;;;;;3.44;84.32;99370.92;10460739;84;98295;-80
2021/04/05 01:10:48;;;;;;;;;;;;;;;3.38;84.92;99354.50;10348922;85;98216;-79
2021/04/05 01:25:52;;;;;;;17.37;7.53;;;;;;;3.23;88.03;99312.38;10355885;84;84286;-79
2021/04/05 01:41:01;;;;;;;15.80;7.30;;;;;;;3.15;89.54;99277.95;10385637;85;98261;-80
2021/04/05 01:56:09;;;;;;;15.55;6.95;;;;;;;3.04;91.37;99237.27;10366745;85;99016;-79
2021/04/05 02:11:16;;;;;;;16.97;9.28;;;;;;;2.95;93.47;99197.79;10320685;85;98766;-78
2021/04/05 02:26:22;;;;;;;17.15;8.70;;;;;;;2.83;96.27;99151.59;10391811;85;97363;-79
2021/04/05 02:41:29;;;;;;;19.13;8.53;;;;;;;2.73;99.48;99131.19;10369925;84;98112;-79
2021/04/05 02:56:38;;;;;;;19.27;8.60;;;;;;;2.65;100.00;99111.88;10355835;84;98113;-79
2021/04/05 03:11:43;;;;;;;20.05;9.33;;;;;;;2.78;100.00;99066.44;10633304;82;98423;-79
2021/04/05 03:26:48;;;;;;;24.95;9.83;;;;;;;3.07;100.00;99014.66;10606668;82;98381;-79
2021/04/05 03:41:58;;;;;;;24.92;10.25;;;;;;;3.14;100.00;98975.66;10383216;84;98454;-80
2021/04/05 03:57:05;;;;;;;17.55;7.67;;;;;;;3.12;100.00;98949.05;10606647;82;98751;-79
2021/04/05 04:12:16;;;;;;;20.27;9.53;;;;;;;3.23;100.00;98906.25;10545344;83;98437;-79
2021/04/05 04:27:20;;;;;;;25.45;11.90;;;;;;;3.26;100.00;98906.02;10572254;81;98470;-79
2021/04/05 04:42:25;;;;;;;19.60;10.45;;;;;;;3.28;100.00;98857.46;10561209;83;98616;-79
2021/04/05 04:57:29;;;;;;;19.50;10.40;;;;;;;3.31;100.00;98818.34;10524407;83;97705;-78
2021/04/05 05:12:35;;;;;;;20.60;10.58;;;;;;;3.33;100.00;98807.36;10562828;83;98466;-79
2021/04/05 05:27:43;;;;;;;20.13;11.37;;;;;;;3.48;100.00;98790.20;10558762;83;98661;-79
2021/04/05 05:43:21;;;;;;;27.02;11.68;;;;;;;3.51;100.00;98767.94;10684980;83;98458;-79
2021/04/05 05:58:36;;;;;;;60.53;25.63;;;;;;;3.76;100.00;98723.91;10730150;82;98458;-79
2021/04/05 06:13:51;;;;;;;21.37;13.22;;;;;;;4.26;100.00;98714.04;10820822;80;98526;-68
2021/04/05 06:29:03;;;;;;;31.77;18.32;;;;;;;4.15;100.00;98663.03;10613836;83;98544;-82
2021/04/05 06:44:36;;;;;;;23.50;11.85;;;;;;;4.36;100.00;98666.02;10662342;82;98430;-81
2021/04/05 06:59:58;;;;;;;24.10;12.47;;;;;;;4.57;100.00;98615.73;10606232;82;98507;-82
2021/04/05 07:15:13;;;;;;;27.30;13.70;;;;;;;4.93;100.00;98560.89;10610149;83;98445;-81
2021/04/05 07:30:23;;;;;;;28.40;15.65;;;;;;;5.00;100.00;98506.56;10339530;83;98414;-74
2021/04/05 07:45:35;;;;;;;24.30;11.63;;;;;;;5.51;99.34;98499.20;10353739;84;98624;-74
2021/04/05 08:00:49;;;;;;;27.98;12.30;;;;;;;6.21;94.01;98436.08;10499855;83;97518;-74
2021/04/05 08:15:59;;;;;;;76.42;34.75;;;;;;;6.32;90.67;98430.63;10468899;83;98495;-76
2021/04/05 08:31:13;;;;;;;52.30;21.60;;;;;;;6.69;86.93;98380.52;10349207;84;98436;-77
2021/04/05 08:46:21;;;;;;;51.37;23.12;;;;;;;6.72;84.99;98394.99;10500646;81;98544;-80
2021/04/05 09:01:31;;;;;;;29.18;13.48;;;;;;;7.15;83.28;98373.16;10635672;82;98445;-75
2021/04/05 09:17:19;;;;;;;39.45;17.75;;;;;;;7.29;81.25;98343.51;10514617;82;98471;-75
2021/04/05 09:32:51;;;;;;;25.10;13.08;;;;;;;7.64;80.86;98324.11;10498532;83;98362;-77
2021/04/05 09:48:48;;;;;;;44.05;18.85;;;;;;;7.99;79.53;98307.73;10526601;82;98474;-82
2021/04/05 10:03:57;;;;;;;31.07;13.60;;;;;;;8.19;79.04;98255.61;10533447;82;98484;-83
2021/04/05 10:19:04;;;;;;;;;;;;;;;8.58;77.85;98248.28;10378179;83;98199;-83
2021/04/05 10:34:11;;;;;;;30.12;12.90;;;;;;;8.52;75.43;98228.06;10596604;83;83503;-83
2021/04/05 10:49:18;;;;;;;33.10;12.07;;;;;;;9.09;72.52;98214.59;10591197;83;98266;-83
2021/04/05 11:04:26;;;;;;;48.27;19.67;;;;;;;9.13;71.11;98206.71;10536992;81;98836;-83
2021/04/05 11:19:34;;;;;;;32.27;10.80;;;;;;;9.05;71.31;98211.98;10466993;83;98374;-84
2021/04/05 11:34:44;;;;;;;29.12;13.35;;;;;;;8.96;71.17;98186.89;10300045;84;98297;-78
2021/04/05 11:49:51;;;;;;;40.52;21.00;;;;;;;8.74;73.11;98182.02;10307555;85;98473;-77
2021/04/05 12:05:02;;;;;;;43.80;18.62;;;;;;;8.71;74.63;98184.96;10302236;85;98480;-77
2021/04/05 12:20:14;;;;;;;47.55;21.95;;;;;;;8.32;82.76;98201.02;10245872;85;98421;-77
2021/04/05 12:35:19;;;;;;;51.20;18.90;;;;;;;7.29;100.00;98193.03;10340556;84;98609;-85
2021/04/05 12:50:27;;;;;;;39.80;16.70;;;;;;;6.57;100.00;98213.70;10358951;83;98680;-85
2021/04/05 13:05:41;;;;;;;21.65;12.37;;;;;;;6.46;100.00;98187.48;10352120;84;98774;-85
2021/04/05 13:20:49;;;;;;;24.95;12.70;;;;;;;6.52;100.00;98202.48;10327409;83;98661;-84
2021/04/05 13:36:06;;;;;;;33.53;15.83;;;;;;;6.55;100.00;98177.90;10370480;83;98853;-85
2021/04/05 13:51:12;;;;;;;66.55;28.25;;;;;;;6.56;100.00;98166.48;10420769;84;98632;-85
2021/04/05 14:06:24;;;;;;;30.53;15.03;;;;;;;6.36;100.00;98160.75;10633702;83;98757;-85
2021/04/05 14:21:31;;;;;;;33.28;15.65;;;;;;;6.39;100.00;98150.01;10631394;83;98770;-84
2021/04/05 14:36:39;;;;;;;24.23;11.78;;;;;;;6.21;100.00;98148.36;10731019;81;98691;-82
2021/04/05 14:51:45;;;;;;;44.93;21.93;;;;;;;5.41;100.00;98185.08;10755680;81;98520;-83
2021/04/05 15:06:57;;;;;;;16.27;8.83;;;;;;;3.97;100.00;98224.84;10697887;81;98647;-78
2021/04/05 15:22:05;;;;;;;11.53;6.20;;;;;;;3.61;100.00;98249.34;10679905;81;98378;-79
2021/04/05 15:37:12;;;;;;;20.30;10.15;;;;;;;3.39;100.00;98277.23;10440913;84;98447;-80
2021/04/05 15:52:18;;;;;;;5.43;3.80;;;;;;;3.38;100.00;98284.66;10620506;81;98579;-86
2021/04/05 16:07:31;;;;;;;44.83;19.57;;;;;;;2.13;100.00;98365.36;10617267;82;98562;-85
2021/04/05 16:22:41;;;;;;;8.27;3.70;;;;;;;1.99;100.00;98370.37;10471863;83;98560;-89
2021/04/05 16:37:47;;;;;;;58.90;23.10;;;;;;;1.67;100.00;98415.21;10495267;83;98262;-88
2021/04/05 16:52:57;;;;;;;39.98;14.40;;;;;;;1.67;100.00;98422.97;10661089;83;99359;-86
2021/04/05 17:08:07;;;;;;;43.13;38.55;;;;;;;1.89;100.00;98407.83;10671077;82;98606;-80
2021/04/05 17:23:17;;;;;;;32.60;12.75;;;;;;;2.15;100.00;98384.98;10645991;82;98617;-78
2021/04/05 17:38:26;;;;;;;26.50;11.33;;;;;;;2.01;100.00;98420.22;10627512;82;98834;-80
2021/04/05 17:53:50;;;;;;;8.38;4.25;;;;;;;1.88;100.00;98429.45;10707416;81;98570;-81
2021/04/05 18:09:06;;;;;;;9.70;4.15;;;;;;;1.76;100.00;98445.48;10707650;83;98077;-80
2021/04/05 18:24:41;;;;;;;55.90;20.57;;;;;;;1.57;100.00;98456.95;10725153;81;98607;-80
2021/04/05 18:39:53;;;;;;;13.25;5.85;;;;;;;1.52;100.00;98465.09;10676975;81;98675;-84
2021/04/05 18:55:05;;;;;;;5.97;2.80;;;;;;;1.60;100.00;98469.66;10546290;83;98914;-85
2021/04/05 19:10:15;;;;;;;18.37;6.50;;;;;;;1.47;100.00;98478.36;10613870;82;98770;-70
2021/04/05 19:25:29;;;;;;;9.98;4.30;;;;;;;1.44;100.00;98495.87;10636065;82;98345;-70
2021/04/05 19:40:51;;;;;;;12.93;4.12;;;;;;;1.46;100.00;98499.16;10501881;83;98364;-69
2021/04/05 19:56:02;;;;;;;9.80;4.72;;;;;;;1.45;100.00;98503.53;10406294;84;98819;-73
2021/04/05 20:11:18;;;;;;;14.35;5.87;;;;;;;1.36;100.00;98486.61;10331882;84;98167;-71
2021/04/05 20:26:26;;;;;;;18.33;7.60;;;;;;;1.18;100.00;98494.87;10339485;84;97508;-73
2021/04/05 20:41:37;;;;;;;8.30;4.55;;;;;;;1.03;100.00;98464.60;10436554;84;98794;-72
2021/04/05 20:56:53;;;;;;;21.07;6.70;;;;;;;0.92;100.00;98486.55;10709272;82;98363;-73
2021/04/05 21:12:03;;;;;;;21.73;7.85;;;;;;;0.95;100.00;98501.80;10752609;81;98546;-73
2021/04/05 21:27:12;;;;;;;13.55;5.67;;;;;;;0.94;100.00;98516.48;10763061;82;98954;-71
2021/04/05 21:42:23;;;;;;;10.13;4.30;;;;;;;1.05;100.00;98515.65;10785571;82;98907;-72
2021/04/05 21:57:31;;;;;;;8.10;4.62;;;;;;;1.32;100.00;98506.23;10721565;82;98345;-71
2021/04/05 22:12:36;;;;;;;10.50;3.02;;;;;;;1.26;100.00;98518.34;10431981;84;98271;-71
2021/04/05 22:27:44;;;;;;;6.45;2.62;;;;;;;1.12;100.00;98534.92;10376392;84;97527;-71
2021/04/05 22:42:49;;;;;;;9.55;3.05;;;;;;;1.07;100.00;98562.86;10432563;84;98866;-72
2021/04/05 22:57:57;;;;;;;4.47;2.37;;;;;;;1.20;100.00;98576.95;10768718;81;98229;-72
2021/04/05 23:13:03;;;;;;;7.42;3.55;;;;;;;1.18;100.00;98582.70;10594503;82;98288;-72
2021/04/05 23:28:11;;;;;;;7.20;2.77;;;;;;;0.92;100.00;98584.19;10711173;82;98086;-72
2021/04/05 23:43:19;;;;;;;5.03;3.10;;;;;;;1.03;100.00;98595.02;10514222;83;98152;-72
2021/04/05 23:58:27;;;;;;;5.80;2.67;;;;;;;0.95;100.00;98606.37;10484250;83;98296;-72
